Startpagina
METAR-TAF:

METAR-TAF

Vliegvelden :

Luchthaven Ben-Gurion

Tel Aviv / Ben Gurion, Israël

breedte: 32-00N, lengte: 034-54E, hoogte: 40 m

Actueel weer

Dit bericht is 36 minuten geleden gemaakt, om 07:20 UTC
Wind 2 kt uit variabele richting
Temperatuur 20°C
Vochtigheid 18%
Druk 1017 hPa
Zicht 10 km of meer
geen wolken onder 1500 m en geen cumulonimbus

METAR: LLBG 210720Z VRB02KT CAVOK 20/M05 Q1017 NOSIG

Tijdstip: 09:56 (07:56 UTC)

Verwachting

Dit bericht is 2 uur en het 50 minuten geleden gemaakt, om 05:06 UTC
Verwachting geldig van 21 om 06 UTC tot 22 om 06 UTC
Wind 3 kt uit variabele richting
Zicht 10 km of meer
geen wolken onder 1500 m en geen cumulonimbus
Wijzigt naar
van 21 om 08 UTC tot 21 om 10 UTC
Wind 8 kt uit het westnoordwesten
Wijzigt naar
van 21 om 17 UTC tot 21 om 19 UTC
Wind 4 kt uit variabele richting

TAF: LLBG 210506Z 2106/2206 VRB03KT CAVOK BECMG 2108/2110 30008KT BECMG 2117/2119 VRB04KT TX24/2111Z TN12/2204Z

Waarnemingen en weersverwachtingen van meer dan 4000 vliegvelden (METAR en TAF).

De beschikbare stations zijn de gele en rode punten op de kaart.

Ga met uw muis naar het station om de naam te zien.

Klik dan om waarnemingen en weersverwachtingen te zien.

kaart wijzigen: klik op de groene knoppen met een zwart kruis om in te zoomen, op de groene knop met een streepje om uit te zoomen of op de groene pijlen voor aangrenzende kaarten.


METAR-TAF: